Time;durP1;ratioP1;P1;durP2;ratioP2;P2;SDS_P1;SDS_P2;PMS_P1;PMS_P2;Temp;Humidity;BMP_temperature;BMP_pressure;BME280_temperature;BME280_humidity;BME280_pressure;Samples;Min_cycle;Max_cycle;Signal;HPM_P1;HPM_P2
2023/08/14 00:00:56;;;;;;;11.40;8.90;;;;;;;21.69;100.00;93008.13;5049457;28;20041;-81
2023/08/14 00:03:22;;;;;;;12.15;8.60;;;;;;;21.68;100.00;93016.44;5057655;28;20039;-81
2023/08/14 00:05:48;;;;;;;12.07;7.80;;;;;;;21.68;100.00;93029.75;5042786;28;20471;-81
2023/08/14 00:08:13;;;;;;;11.90;8.63;;;;;;;21.65;100.00;93031.22;5043474;28;20080;-81
2023/08/14 00:10:39;;;;;;;15.93;8.10;;;;;;;21.65;100.00;93031.22;5066414;28;20079;-81
2023/08/14 00:13:05;;;;;;;10.23;8.00;;;;;;;21.68;100.00;93043.84;5054123;28;20346;-81
2023/08/14 00:15:30;;;;;;;13.68;8.35;;;;;;;21.68;100.00;93043.84;5042294;28;20025;-81
2023/08/14 00:17:56;;;;;;;12.30;8.63;;;;;;;21.70;100.00;93041.63;5037744;28;20065;-79
2023/08/14 00:20:21;;;;;;;13.40;8.88;;;;;;;21.70;100.00;93032.84;5051838;28;20052;-80
2023/08/14 00:22:47;;;;;;;13.18;9.30;;;;;;;21.72;100.00;93035.97;5051951;28;20106;-81
2023/08/14 00:25:12;;;;;;;15.05;9.60;;;;;;;21.73;100.00;93032.97;5053401;28;20098;-81
2023/08/14 00:27:38;;;;;;;12.80;9.80;;;;;;;21.74;100.00;93029.16;5048144;28;20047;-80
2023/08/14 00:30:04;;;;;;;14.40;10.35;;;;;;;21.77;100.00;93033.84;5041171;28;20041;-80
2023/08/14 00:32:30;;;;;;;17.90;10.05;;;;;;;21.76;100.00;93032.25;5068806;28;20041;-80
2023/08/14 00:34:55;;;;;;;14.77;10.65;;;;;;;21.75;100.00;93046.72;5037068;28;20037;-80
2023/08/14 00:37:23;;;;;;;14.35;10.80;;;;;;;21.68;100.00;93035.84;5041073;28;20038;-80
2023/08/14 00:39:48;;;;;;;15.68;10.50;;;;;;;21.64;100.00;93048.34;5036698;28;20475;-80
2023/08/14 00:42:14;;;;;;;13.85;10.13;;;;;;;21.58;100.00;93041.69;5039714;28;20084;-81
2023/08/14 00:44:39;;;;;;;14.23;10.63;;;;;;;21.50;100.00;93046.03;5035805;28;20056;-79
2023/08/14 00:47:07;;;;;;;17.60;11.23;;;;;;;21.48;100.00;93050.97;5036048;28;20033;-80
2023/08/14 00:49:33;;;;;;;21.98;12.23;;;;;;;21.42;100.00;93050.41;5029545;28;20049;-80
2023/08/14 00:52:00;;;;;;;17.67;11.15;;;;;;;21.36;100.00;93050.97;5029973;28;20395;-81
2023/08/14 00:54:26;;;;;;;18.15;11.43;;;;;;;21.29;100.00;93058.78;5035741;28;20025;-80
2023/08/14 00:56:51;;;;;;;20.30;12.15;;;;;;;21.17;100.00;93048.94;5052183;28;20411;-80
2023/08/14 00:59:17;;;;;;;16.92;12.68;;;;;;;21.05;100.00;93041.00;5042181;28;20029;-80
2023/08/14 01:01:43;;;;;;;16.55;12.25;;;;;;;20.97;100.00;93046.13;5067920;28;20038;-78
2023/08/14 01:04:09;;;;;;;16.10;12.30;;;;;;;20.81;100.00;93042.63;5041354;28;20029;-81
2023/08/14 01:06:35;;;;;;;16.50;12.68;;;;;;;20.79;100.00;93039.53;5051587;28;20041;-81
2023/08/14 01:09:00;;;;;;;22.05;13.82;;;;;;;20.68;100.00;93033.13;5033099;28;20025;-80
2023/08/14 01:11:50;;;;;;;17.25;12.57;;;;;;;20.61;100.00;93035.56;5042262;28;20071;-80
2023/08/14 01:14:28;;;;;;;16.85;12.98;;;;;;;20.56;100.00;93033.88;5034705;28;20064;-80
2023/08/14 01:16:59;;;;;;;16.88;12.95;;;;;;;20.51;100.00;93037.56;5037270;28;20037;-80
2023/08/14 01:19:31;;;;;;;20.70;15.63;;;;;;;20.47;100.00;93020.72;5025203;28;20047;-80
2023/08/14 01:22:03;;;;;;;;;;;;;;;20.42;100.00;93020.91;5044242;28;20117;-81
2023/08/14 01:25:16;;;;;;;20.85;15.85;;;;;;;20.37;100.00;93026.47;5048136;28;19913;-79
2023/08/14 01:27:42;;;;;;;20.38;14.68;;;;;;;20.37;100.00;93023.81;5049853;28;20063;-80
2023/08/14 01:30:08;;;;;;;21.35;14.95;;;;;;;20.31;100.00;93027.78;5051096;28;20033;-79
2023/08/14 01:32:34;;;;;;;18.17;12.40;;;;;;;20.28;100.00;93026.56;5053845;28;20490;-80
2023/08/14 01:34:59;;;;;;;16.45;12.15;;;;;;;20.23;100.00;93028.69;5037782;28;20057;-80
2023/08/14 01:37:35;;;;;;;12.27;9.02;;;;;;;20.18;100.00;93022.50;5043077;28;20449;-80
2023/08/14 01:40:21;;;;;;;12.95;10.13;;;;;;;20.15;100.00;93025.81;5053753;28;20112;-81
2023/08/14 01:42:52;;;;;;;12.02;9.43;;;;;;;20.12;100.00;93026.47;5048550;28;20041;-80
2023/08/14 01:45:21;;;;;;;12.80;10.20;;;;;;;20.10;100.00;93015.41;5028932;28;20048;-80
2023/08/14 01:47:48;;;;;;;13.10;9.20;;;;;;;20.07;100.00;93021.38;5042373;28;20033;-80
2023/08/14 01:50:15;;;;;;;11.98;8.73;;;;;;;20.06;100.00;93019.03;5050922;28;20045;-81
2023/08/14 01:52:41;;;;;;;10.65;7.72;;;;;;;20.02;100.00;93010.19;5035861;28;20087;-80
2023/08/14 01:55:06;;;;;;;13.40;9.00;;;;;;;20.01;100.00;93020.03;5035678;28;20446;-80
2023/08/14 01:57:33;;;;;;;12.48;7.97;;;;;;;19.93;100.00;93011.09;5034770;28;20037;-80
2023/08/14 01:59:59;;;;;;;13.63;8.10;;;;;;;19.85;100.00;93008.53;5049010;28;20045;-81
2023/08/14 02:02:24;;;;;;;13.70;8.55;;;;;;;19.79;100.00;93012.50;5050394;28;20045;-80
2023/08/14 02:04:50;;;;;;;11.45;8.35;;;;;;;19.78;100.00;93019.69;5044398;28;20049;-80
2023/08/14 02:07:17;;;;;;;11.07;8.10;;;;;;;19.69;100.00;93014.47;5037590;28;20041;-80
2023/08/14 02:09:42;;;;;;;16.42;8.15;;;;;;;19.67;100.00;93014.00;5035257;28;20083;-78
2023/08/14 02:12:08;;;;;;;12.57;6.63;;;;;;;19.71;100.00;93009.63;5047495;28;20060;-81
2023/08/14 02:14:34;;;;;;;10.52;6.80;;;;;;;19.59;100.00;93009.59;5058073;28;20050;-80
2023/08/14 02:17:00;;;;;;;8.45;6.47;;;;;;;19.54;100.00;93005.25;5056140;28;20056;-81
2023/08/14 02:19:25;;;;;;;13.43;8.00;;;;;;;19.48;100.00;92993.28;5043646;28;20041;-79
2023/08/14 02:21:51;;;;;;;12.90;7.72;;;;;;;19.47;100.00;92983.75;5038021;28;20037;-80
2023/08/14 02:24:17;;;;;;;12.25;9.00;;;;;;;19.53;100.00;92993.06;5039769;28;20033;-80
2023/08/14 02:26:42;;;;;;;13.27;9.38;;;;;;;19.53;100.00;92985.09;5057571;28;20032;-80
2023/08/14 02:29:08;;;;;;;13.32;9.05;;;;;;;19.53;100.00;92979.03;5036386;28;20029;-80
2023/08/14 02:31:36;;;;;;;15.15;9.68;;;;;;;19.54;100.00;92975.25;5057607;28;20033;-80
2023/08/14 02:34:02;;;;;;;11.70;9.60;;;;;;;19.52;100.00;92972.16;5023402;28;20554;-80
2023/08/14 02:36:28;;;;;;;15.32;10.10;;;;;;;19.54;100.00;92981.38;5051755;28;20033;-81
2023/08/14 02:38:54;;;;;;;12.63;10.00;;;;;;;19.55;100.00;92984.78;5047406;28;20036;-80
2023/08/14 02:41:20;;;;;;;12.68;10.32;;;;;;;19.57;100.00;92977.28;5036671;28;20076;-80
2023/08/14 02:43:46;;;;;;;14.98;9.90;;;;;;;19.56;100.00;92981.78;5038555;28;20040;-80
2023/08/14 02:46:13;;;;;;;16.27;9.45;;;;;;;19.56;100.00;92986.31;5039525;28;20037;-80
2023/08/14 02:48:40;;;;;;;13.82;9.80;;;;;;;19.56;100.00;92975.69;5037862;28;20114;-80
2023/08/14 02:51:05;;;;;;;16.50;11.15;;;;;;;19.55;100.00;92971.50;5052484;28;20099;-80
2023/08/14 02:53:31;;;;;;;14.57;11.38;;;;;;;19.56;100.00;92970.38;5050973;28;20040;-81
2023/08/14 02:55:57;;;;;;;15.82;12.60;;;;;;;19.57;100.00;92979.91;5058040;28;20036;-80
2023/08/14 02:58:23;;;;;;;16.27;12.55;;;;;;;19.61;100.00;92972.06;5056191;28;20045;-78
2023/08/14 03:00:49;;;;;;;16.67;11.88;;;;;;;19.63;100.00;92977.81;5049200;28;20040;-81
2023/08/14 03:03:15;;;;;;;13.18;10.57;;;;;;;19.66;100.00;92983.25;5055129;28;20164;-81
2023/08/14 03:05:41;;;;;;;13.23;10.75;;;;;;;19.67;100.00;92987.44;5071176;28;20033;-80
2023/08/14 03:08:07;;;;;;;15.13;10.77;;;;;;;19.64;100.00;92974.84;5038766;28;20052;-80
2023/08/14 03:10:33;;;;;;;16.63;11.38;;;;;;;19.58;100.00;92981.47;5036535;28;20033;-80
2023/08/14 03:13:00;;;;;;;13.65;10.80;;;;;;;19.55;100.00;92972.28;5069922;28;20061;-80
2023/08/14 03:15:25;;;;;;;13.45;10.75;;;;;;;19.49;100.00;92970.16;5047333;28;20137;-80
2023/08/14 03:17:51;;;;;;;15.30;10.88;;;;;;;19.44;100.00;92975.69;5053872;28;20236;-80
2023/08/14 03:20:17;;;;;;;17.77;12.70;;;;;;;19.39;100.00;92974.03;5052732;28;20051;-80
2023/08/14 03:22:42;;;;;;;14.85;12.05;;;;;;;19.37;100.00;92978.13;5038600;28;20042;-81
2023/08/14 03:25:08;;;;;;;16.42;12.93;;;;;;;19.29;100.00;92971.78;5046745;28;20400;-80
2023/08/14 03:27:34;;;;;;;15.98;11.45;;;;;;;19.27;100.00;92982.75;5044867;28;20091;-81
2023/08/14 03:29:59;;;;;;;14.38;11.32;;;;;;;19.24;100.00;92986.03;5045873;28;20029;-80
2023/08/14 03:32:26;;;;;;;17.00;11.90;;;;;;;19.19;100.00;92980.94;5032144;28;20033;-81
2023/08/14 03:34:51;;;;;;;14.55;12.05;;;;;;;19.16;100.00;92984.22;5053040;28;20039;-81
2023/08/14 03:37:17;;;;;;;17.08;12.43;;;;;;;19.13;100.00;92985.66;5057477;28;20032;-80
2023/08/14 03:39:43;;;;;;;16.88;12.27;;;;;;;19.11;100.00;92982.56;5038168;28;20100;-80
2023/08/14 03:42:09;;;;;;;16.02;11.90;;;;;;;19.09;100.00;92986.66;5028890;28;20132;-79
2023/08/14 03:44:34;;;;;;;18.10;11.68;;;;;;;19.06;100.00;92985.41;5037194;28;20391;-81
2023/08/14 03:47:00;;;;;;;16.35;11.85;;;;;;;19.06;100.00;92982.00;5070885;28;20055;-80
2023/08/14 03:49:25;;;;;;;16.13;12.50;;;;;;;19.01;100.00;92982.97;5003823;28;20076;-80
2023/08/14 03:51:51;;;;;;;14.18;11.80;;;;;;;19.03;100.00;92990.63;5038090;28;20047;-79
2023/08/14 03:54:17;;;;;;;15.40;12.52;;;;;;;19.00;100.00;92978.75;5045056;28;20042;-80
2023/08/14 03:56:43;;;;;;;15.95;11.60;;;;;;;18.92;100.00;92975.09;5044621;28;20033;-80
2023/08/14 03:59:08;;;;;;;17.05;12.07;;;;;;;18.93;100.00;92973.22;5039847;28;20045;-80
2023/08/14 04:01:36;;;;;;;15.38;12.32;;;;;;;18.90;100.00;92977.28;5037798;28;20041;-81
2023/08/14 04:04:03;;;;;;;15.30;11.50;;;;;;;18.86;100.00;92971.09;5051313;28;20041;-79
2023/08/14 04:06:28;;;;;;;14.80;11.65;;;;;;;18.83;100.00;92970.97;5051683;28;20041;-80
2023/08/14 04:08:54;;;;;;;17.55;12.27;;;;;;;18.76;100.00;92981.31;5040348;28;20041;-80
2023/08/14 04:11:21;;;;;;;20.10;12.68;;;;;;;18.72;100.00;92975.88;5047847;28;20047;-80
2023/08/14 04:13:47;;;;;;;20.23;15.13;;;;;;;18.72;100.00;92975.88;5055293;28;20041;-80
2023/08/14 04:16:12;;;;;;;24.35;16.63;;;;;;;18.68;100.00;92970.41;5056079;28;20059;-80
2023/08/14 04:18:38;;;;;;;19.92;14.23;;;;;;;18.67;100.00;92962.81;5048931;28;20075;-80
2023/08/14 04:21:03;;;;;;;18.48;13.13;;;;;;;18.61;100.00;92958.78;5038223;28;20503;-80
2023/08/14 04:23:30;;;;;;;16.00;11.90;;;;;;;18.60;100.00;92968.63;5053546;28;20025;-80
2023/08/14 04:25:56;;;;;;;16.20;11.57;;;;;;;18.59;100.00;92972.38;5037086;28;20045;-79
2023/08/14 04:28:23;;;;;;;14.63;11.57;;;;;;;18.55;100.00;92968.81;5038435;28;20084;-80
2023/08/14 04:30:49;;;;;;;16.45;11.77;;;;;;;18.53;100.00;92963.06;5035247;28;20033;-79
2023/08/14 04:33:15;;;;;;;15.20;11.90;;;;;;;18.55;100.00;92965.38;5046098;28;20508;-81
2023/08/14 04:35:42;;;;;;;16.38;11.88;;;;;;;18.59;100.00;92966.28;5035355;28;20080;-78
2023/08/14 04:38:08;;;;;;;18.75;12.00;;;;;;;18.54;100.00;92966.50;5036162;28;20033;-80
2023/08/14 04:40:35;;;;;;;18.38;12.40;;;;;;;18.48;100.00;92966.66;5042208;28;20037;-80
2023/08/14 04:43:01;;;;;;;15.90;11.73;;;;;;;18.47;100.00;92961.72;5040416;28;20033;-80
2023/08/14 04:45:27;;;;;;;15.38;11.23;;;;;;;18.44;100.00;92955.19;5051958;28;20261;-80
2023/08/14 04:47:52;;;;;;;15.30;11.02;;;;;;;18.44;100.00;92963.13;5052348;28;20542;-81
2023/08/14 04:50:19;;;;;;;20.15;10.25;;;;;;;18.43;100.00;92956.28;5040513;28;20291;-79
2023/08/14 04:52:45;;;;;;;17.17;10.25;;;;;;;18.45;100.00;92961.25;5055072;28;20037;-80
2023/08/14 04:55:10;;;;;;;14.15;10.02;;;;;;;18.45;100.00;92962.03;5040635;28;20099;-80
2023/08/14 04:57:38;;;;;;;14.75;11.38;;;;;;;18.48;100.00;92960.59;5036583;28;20045;-80
2023/08/14 05:00:06;;;;;;;19.17;11.90;;;;;;;18.54;100.00;92961.97;5036174;28;20453;-80
2023/08/14 05:02:33;;;;;;;14.50;10.57;;;;;;;18.57;100.00;92965.84;5049747;28;20415;-80
2023/08/14 05:05:00;;;;;;;15.15;10.77;;;;;;;18.61;100.00;92970.16;5040221;28;20044;-80
2023/08/14 05:07:25;;;;;;;17.15;10.20;;;;;;;18.59;100.00;92972.38;5046487;28;20037;-80
2023/08/14 05:09:51;;;;;;;12.77;9.98;;;;;;;18.62;100.00;92976.25;5048715;28;20037;-80
2023/08/14 05:12:16;;;;;;;13.90;9.88;;;;;;;18.62;100.00;92978.91;5035574;28;20034;-80
2023/08/14 05:14:42;;;;;;;12.05;9.50;;;;;;;18.66;100.00;92971.84;5068610;28;20033;-80
2023/08/14 05:17:07;;;;;;;15.63;10.60;;;;;;;18.71;100.00;92982.25;5031822;28;20060;-80
2023/08/14 05:19:33;;;;;;;16.15;10.63;;;;;;;18.73;100.00;92972.91;5041571;28;20496;-80
2023/08/14 05:21:59;;;;;;;17.38;10.85;;;;;;;18.79;100.00;92973.50;5049292;28;20079;-80
2023/08/14 05:24:24;;;;;;;14.20;9.95;;;;;;;18.80;100.00;92972.41;5037882;28;20043;-78
2023/08/14 05:26:50;;;;;;;13.45;10.23;;;;;;;18.88;100.00;92979.50;5039663;28;20064;-80
2023/08/14 05:29:16;;;;;;;16.70;11.60;;;;;;;18.91;100.00;92984.16;5036401;28;20495;-80
2023/08/14 05:31:41;;;;;;;14.90;11.40;;;;;;;18.95;100.00;92983.50;5069390;28;20045;-80
2023/08/14 05:34:07;;;;;;;15.70;10.88;;;;;;;18.97;100.00;92982.06;5068675;28;20033;-80
2023/08/14 05:36:32;;;;;;;15.13;10.85;;;;;;;19.02;100.00;92984.50;5037529;28;20041;-80
2023/08/14 05:38:58;;;;;;;15.68;10.50;;;;;;;19.11;100.00;92987.88;5065427;28;20045;-80
2023/08/14 05:41:24;;;;;;;15.43;10.52;;;;;;;19.20;100.00;92987.00;5034413;28;20156;-80
2023/08/14 05:43:49;;;;;;;16.20;10.80;;;;;;;19.23;100.00;92983.69;5035210;28;20068;-79
2023/08/14 05:46:15;;;;;;;13.45;9.77;;;;;;;19.23;100.00;92989.00;5066456;28;20048;-79
2023/08/14 05:48:41;;;;;;;16.45;10.25;;;;;;;19.28;100.00;92992.25;5051331;28;20044;-80
2023/08/14 05:51:07;;;;;;;13.77;10.55;;;;;;;19.29;100.00;92988.47;5074265;28;20044;-80
2023/08/14 05:53:32;;;;;;;14.90;10.43;;;;;;;19.35;100.00;92984.50;5074244;28;20041;-80
2023/08/14 05:55:58;;;;;;;14.48;9.57;;;;;;;19.39;100.00;92975.91;5075099;28;20037;-79
2023/08/14 05:58:23;;;;;;;12.65;9.25;;;;;;;19.43;100.00;92982.09;5074428;28;20036;-80
2023/08/14 06:00:49;;;;;;;16.02;10.10;;;;;;;19.46;100.00;92978.78;5076318;28;20035;-80
2023/08/14 06:03:15;;;;;;;12.02;8.52;;;;;;;19.49;100.00;92984.22;5074744;28;20032;-80
2023/08/14 06:05:41;;;;;;;17.20;9.40;;;;;;;19.62;100.00;92987.66;5074707;28;20032;-80
2023/08/14 06:08:07;;;;;;;15.13;9.15;;;;;;;19.68;100.00;92986.34;5075080;28;20037;-80
2023/08/14 06:10:32;;;;;;;13.30;8.57;;;;;;;19.73;100.00;92986.16;5072024;28;20107;-80
2023/08/14 06:12:58;;;;;;;16.55;9.05;;;;;;;19.87;100.00;92993.03;5075234;28;20117;-80
2023/08/14 06:15:25;;;;;;;14.50;9.48;;;;;;;20.16;100.00;92990.16;5089064;28;20426;-80
2023/08/14 06:17:51;;;;;;;13.30;8.43;;;;;;;20.59;100.00;92993.34;5071306;28;20058;-79
2023/08/14 06:20:17;;;;;;;13.30;8.35;;;;;;;21.14;100.00;92996.38;5072700;28;20033;-79
2023/08/14 06:22:45;;;;;;;13.82;8.30;;;;;;;21.45;100.00;92997.59;5056275;28;20576;-80
2023/08/14 06:25:12;;;;;;;10.95;7.60;;;;;;;21.72;100.00;92991.44;5074513;28;20020;-80
2023/08/14 06:27:38;;;;;;;13.52;7.50;;;;;;;22.03;100.00;92990.66;5073036;28;20033;-80
2023/08/14 06:30:05;;;;;;;12.63;6.95;;;;;;;22.15;100.00;92995.13;5073419;28;20071;-80
2023/08/14 06:32:30;;;;;;;12.02;7.35;;;;;;;21.98;100.00;93006.16;5072529;28;20055;-80
2023/08/14 06:34:56;;;;;;;10.02;7.53;;;;;;;22.08;100.00;93005.63;5071549;28;21063;-80
2023/08/14 06:37:22;;;;;;;9.30;7.20;;;;;;;22.49;100.00;92998.19;5063137;28;20045;-81
2023/08/14 06:39:47;;;;;;;11.80;7.15;;;;;;;23.06;100.00;93004.75;5065173;28;20060;-81
2023/08/14 06:42:13;;;;;;;8.88;6.60;;;;;;;23.48;100.00;93004.03;5085047;28;20040;-81
2023/08/14 06:44:39;;;;;;;7.25;5.32;;;;;;;23.27;100.00;93008.97;5061622;28;20033;-80
2023/08/14 06:47:06;;;;;;;7.78;5.35;;;;;;;23.09;100.00;93010.50;5053832;28;20112;-79
2023/08/14 06:49:31;;;;;;;8.50;5.20;;;;;;;22.84;100.00;93008.84;5073472;28;20119;-80
2023/08/14 06:51:57;;;;;;;7.78;4.88;;;;;;;22.74;100.00;93009.41;5071497;28;20079;-80
2023/08/14 06:54:23;;;;;;;7.97;5.25;;;;;;;22.61;100.00;93008.00;5072962;28;20058;-80
2023/08/14 06:56:48;;;;;;;6.13;4.43;;;;;;;22.51;100.00;93017.28;5072408;28;20093;-79
2023/08/14 06:59:14;;;;;;;8.40;5.63;;;;;;;22.49;100.00;93014.19;5078300;28;20509;-80
2023/08/14 07:01:40;;;;;;;7.72;5.15;;;;;;;22.72;100.00;93021.53;5075084;28;20045;-80
2023/08/14 07:04:06;;;;;;;10.65;4.60;;;;;;;22.76;100.00;93028.50;5074688;28;20051;-80
2023/08/14 07:06:32;;;;;;;7.28;4.93;;;;;;;22.71;100.00;93025.34;5078831;28;20119;-80
2023/08/14 07:08:57;;;;;;;6.15;4.40;;;;;;;22.69;100.00;93027.56;5076362;28;20106;-79
2023/08/14 07:11:23;;;;;;;10.13;7.68;;;;;;;22.18;100.00;93031.78;5075794;28;20102;-80
2023/08/14 07:13:48;;;;;;;14.75;7.15;;;;;;;21.92;100.00;93026.94;5074208;28;20033;-80
2023/08/14 07:16:14;;;;;;;9.77;6.40;;;;;;;21.83;100.00;93032.44;5076839;28;20079;-80
2023/08/14 07:18:39;;;;;;;8.40;6.07;;;;;;;21.75;100.00;93033.41;5074601;28;20041;-80
2023/08/14 07:21:05;;;;;;;7.82;6.45;;;;;;;21.77;100.00;93033.84;5076228;28;20546;-81
2023/08/14 07:23:32;;;;;;;8.80;5.95;;;;;;;21.70;100.00;93038.97;5073721;28;20085;-80
2023/08/14 07:25:59;;;;;;;8.77;6.32;;;;;;;21.58;100.00;93034.47;5069747;28;20043;-80
2023/08/14 07:28:25;;;;;;;9.43;6.07;;;;;;;21.73;100.00;93038.28;5070708;28;20395;-80
2023/08/14 07:30:51;;;;;;;8.50;6.30;;;;;;;21.68;100.00;93040.41;5069088;28;20052;-81
2023/08/14 07:33:17;;;;;;;7.13;6.15;;;;;;;21.57;100.00;93032.13;5067443;28;20120;-80
2023/08/14 07:35:42;;;;;;;8.82;6.00;;;;;;;21.47;100.00;93045.97;5066597;28;20457;-80
2023/08/14 07:38:08;;;;;;;8.85;6.07;;;;;;;21.26;100.00;93046.91;5074142;28;20502;-80
2023/08/14 07:40:34;;;;;;;8.60;6.35;;;;;;;21.21;100.00;93047.16;5075680;28;20033;-81
2023/08/14 07:42:59;;;;;;;7.40;5.78;;;;;;;21.34;100.00;93051.31;5076843;28;20033;-81
2023/08/14 07:45:25;;;;;;;9.57;6.43;;;;;;;21.51;100.00;93044.19;5077822;28;20450;-81
2023/08/14 07:47:50;;;;;;;10.70;6.00;;;;;;;21.70;100.00;93044.28;5076227;28;20090;-80
2023/08/14 07:50:16;;;;;;;8.52;5.72;;;;;;;21.95;100.00;93044.13;5065492;28;20055;-81
2023/08/14 07:52:42;;;;;;;9.43;5.70;;;;;;;22.11;100.00;93047.59;5075605;28;20052;-81
2023/08/14 07:55:08;;;;;;;7.68;5.55;;;;;;;22.38;100.00;93050.50;5076395;28;20044;-81
2023/08/14 07:57:33;;;;;;;7.20;5.07;;;;;;;22.51;100.00;93046.63;5075878;28;20040;-81
2023/08/14 07:59:59;;;;;;;8.32;4.70;;;;;;;22.70;100.00;93050.47;5075729;28;20056;-81
2023/08/14 08:02:26;;;;;;;10.18;4.65;;;;;;;22.88;100.00;93048.97;5075433;28;20041;-81
2023/08/14 08:04:51;;;;;;;5.50;3.63;;;;;;;23.12;100.00;93055.19;5076085;28;20071;-79
2023/08/14 08:07:17;;;;;;;5.70;3.50;;;;;;;23.48;100.00;93056.66;5071067;28;20054;-79
2023/08/14 08:09:42;;;;;;;6.05;3.70;;;;;;;23.87;100.00;93053.97;5072435;28;20028;-80
2023/08/14 08:12:09;;;;;;;7.47;4.70;;;;;;;23.81;100.00;93053.50;5074177;28;20670;-79
2023/08/14 08:14:35;;;;;;;9.10;4.55;;;;;;;23.47;100.00;93053.22;5054709;28;20503;-82
2023/08/14 08:17:01;;;;;;;6.78;4.70;;;;;;;23.18;100.00;93054.56;5072821;28;20054;-83
2023/08/14 08:19:27;;;;;;;7.35;4.88;;;;;;;23.15;100.00;93059.84;5077601;28;20020;-83
2023/08/14 08:21:53;;;;;;;8.73;5.45;;;;;;;23.05;100.00;93056.59;5074139;28;20098;-82
2023/08/14 08:24:19;;;;;;;7.75;4.80;;;;;;;23.09;100.00;93058.56;5066699;28;20058;-83
2023/08/14 08:26:45;;;;;;;6.70;4.55;;;;;;;23.14;100.00;93060.97;5070732;28;20430;-82
2023/08/14 08:29:11;;;;;;;5.60;4.10;;;;;;;23.43;100.00;93054.28;5073422;28;20047;-82
2023/08/14 08:31:37;;;;;;;7.72;4.20;;;;;;;24.04;100.00;93047.38;5075761;28;20371;-81
2023/08/14 08:34:03;;;;;;;7.32;4.35;;;;;;;24.22;100.00;93058.38;5075705;28;20058;-82
2023/08/14 08:36:28;;;;;;;5.55;3.78;;;;;;;24.12;100.00;93056.31;5074203;28;20124;-82
2023/08/14 08:38:54;;;;;;;5.85;4.15;;;;;;;24.01;100.00;93062.22;5053854;28;20033;-81
2023/08/14 08:41:24;;;;;;;6.78;4.40;;;;;;;23.83;100.00;93061.94;5076025;28;20037;-81
2023/08/14 08:44:15;;;;;;;5.35;4.15;;;;;;;23.82;100.00;93060.41;5073037;28;20109;-82
2023/08/14 08:47:08;;;;;;;4.60;3.45;;;;;;;24.18;100.00;93062.88;5077140;28;20033;-84
2023/08/14 08:49:34;;;;;;;4.70;3.70;;;;;;;24.52;100.00;93061.19;5087163;28;20044;-83
2023/08/14 08:52:02;;;;;;;5.05;3.50;;;;;;;24.92;100.00;93065.16;5060160;28;20256;-84
2023/08/14 08:54:29;;;;;;;6.13;3.30;;;;;;;25.09;100.00;93058.50;5057482;28;20043;-84
2023/08/14 08:56:59;;;;;;;9.23;3.70;;;;;;;24.99;100.00;93059.91;5066530;28;20032;-84
2023/08/14 08:59:26;;;;;;;5.80;4.15;;;;;;;24.68;100.00;93063.69;5057861;28;20476;-83
2023/08/14 09:01:51;;;;;;;5.22;3.75;;;;;;;24.71;100.00;93055.72;5078132;28;20047;-84
2023/08/14 09:04:17;;;;;;;8.68;4.00;;;;;;;24.70;100.00;93059.53;5075668;28;20033;-84
2023/08/14 09:06:43;;;;;;;7.35;3.70;;;;;;;24.88;100.00;93051.75;5072418;28;20036;-83
2023/08/14 09:09:12;;;;;;;7.47;3.92;;;;;;;24.94;100.00;93054.88;5059306;28;20037;-84
2023/08/14 09:11:37;;;;;;;4.88;3.50;;;;;;;24.89;100.00;93055.94;5077356;28;20028;-84
2023/08/14 09:14:03;;;;;;;6.72;3.80;;;;;;;25.14;100.00;93055.50;5074999;28;20040;-85
2023/08/14 09:16:29;;;;;;;5.03;3.80;;;;;;;25.04;100.00;93056.94;5075586;28;20477;-85
2023/08/14 09:18:59;;;;;;;6.75;3.55;;;;;;;25.18;100.00;93058.25;5076584;28;20037;-84
2023/08/14 09:21:26;;;;;;;7.45;3.70;;;;;;;25.08;100.00;93052.41;5067460;28;20498;-84
2023/08/14 09:23:52;;;;;;;9.68;3.72;;;;;;;25.05;100.00;93057.69;5042246;28;20512;-84
2023/08/14 09:26:19;;;;;;;5.65;3.90;;;;;;;25.09;100.00;93064.63;5041592;28;20071;-85
2023/08/14 09:28:44;;;;;;;5.72;3.80;;;;;;;25.17;100.00;93054.78;5072345;28;20059;-84
2023/08/14 09:31:12;;;;;;;5.00;3.88;;;;;;;25.32;100.00;93066.47;5074858;28;20040;-85
2023/08/14 09:33:42;;;;;;;6.43;3.60;;;;;;;25.27;100.00;93066.81;5042933;28;20033;-85
2023/08/14 09:36:09;;;;;;;6.85;3.55;;;;;;;25.24;100.00;93059.47;5050613;28;20100;-85
2023/08/14 09:38:38;;;;;;;5.32;3.45;;;;;;;25.27;100.00;93058.78;5073935;28;20055;-84
2023/08/14 09:41:04;;;;;;;5.35;3.60;;;;;;;25.14;100.00;93061.63;5090561;28;20027;-85
2023/08/14 09:43:32;;;;;;;5.00;3.60;;;;;;;25.19;100.00;93059.81;5055957;28;20100;-84
2023/08/14 09:45:59;;;;;;;5.10;3.53;;;;;;;25.38;100.00;93065.03;5070965;28;20096;-84
2023/08/14 09:48:42;;;;;;;4.70;2.83;;;;;;;25.49;100.00;93060.56;5070785;28;20044;-79
2023/08/14 09:51:16;;;;;;;4.88;3.40;;;;;;;25.58;100.00;93059.47;5065356;28;20066;-85
2023/08/14 09:53:54;;;;;;;6.28;3.30;;;;;;;25.43;100.00;93051.28;5076580;28;20048;-79
2023/08/14 09:56:20;;;;;;;5.00;3.25;;;;;;;25.35;100.00;93055.03;5072472;28;20030;-86
2023/08/14 09:58:47;;;;;;;4.90;3.45;;;;;;;24.91;100.00;93058.28;5055148;28;20032;-85
2023/08/14 10:01:17;;;;;;;8.30;3.70;;;;;;;25.04;100.00;93056.13;5056739;28;20036;-84
2023/08/14 10:03:46;;;;;;;5.97;3.55;;;;;;;25.39;100.00;93052.41;5072195;28;20057;-84
2023/08/14 10:06:13;;;;;;;5.93;3.30;;;;;;;25.60;100.00;93051.84;5084535;28;20036;-86
2023/08/14 10:08:44;;;;;;;4.90;3.50;;;;;;;25.72;100.00;93046.25;5050066;28;20059;-86
2023/08/14 10:11:12;;;;;;;6.95;3.53;;;;;;;25.74;100.00;93046.66;5040878;28;20021;-84
2023/08/14 10:13:52;;;;;;;4.63;3.22;;;;;;;26.12;100.00;93042.84;5076490;28;20082;-84
2023/08/14 10:16:27;;;;;;;7.07;3.58;;;;;;;25.81;100.00;93038.69;5076435;28;20079;-85
2023/08/14 10:18:56;;;;;;;5.65;3.72;;;;;;;25.50;100.00;93037.97;5073164;28;20136;-85
2023/08/14 10:21:27;;;;;;;6.22;3.55;;;;;;;25.59;100.00;93031.56;5069019;28;20024;-85
2023/08/14 10:23:55;;;;;;;5.20;3.47;;;;;;;25.52;100.00;93024.97;5077359;28;20089;-83
2023/08/14 10:26:22;;;;;;;5.47;3.50;;;;;;;25.52;100.00;93019.63;5072702;28;20494;-85
2023/08/14 10:28:49;;;;;;;5.97;3.75;;;;;;;25.83;100.00;93014.94;5059638;28;20056;-85
2023/08/14 10:31:15;;;;;;;5.53;3.35;;;;;;;26.05;100.00;93026.69;5059439;28;20032;-84
2023/08/14 10:33:41;;;;;;;5.07;3.50;;;;;;;26.00;100.00;93016.28;5046161;28;20124;-82
2023/08/14 10:36:07;;;;;;;6.53;3.50;;;;;;;25.96;100.00;93018.16;5071641;28;20039;-78
2023/08/14 10:38:40;;;;;;;4.80;3.38;;;;;;;26.01;100.00;93020.50;5059594;28;20107;-81
2023/08/14 10:41:07;;;;;;;7.35;3.58;;;;;;;25.98;100.00;93020.47;5073615;28;20126;-77
2023/08/14 10:43:33;;;;;;;6.22;3.80;;;;;;;25.93;100.00;93016.22;5083109;28;20036;-79
2023/08/14 10:45:58;;;;;;;5.95;3.55;;;;;;;26.08;100.00;93011.75;5075175;28;20732;-78
2023/08/14 10:48:24;;;;;;;4.68;3.22;;;;;;;26.32;100.00;93008.50;5085887;28;20051;-78
2023/08/14 10:51:01;;;;;;;5.25;3.35;;;;;;;26.50;100.00;93007.84;5076104;28;20470;-78
2023/08/14 10:53:30;;;;;;;6.55;3.22;;;;;;;26.40;100.00;93009.31;5077187;28;20112;-79
2023/08/14 10:55:57;;;;;;;6.40;3.30;;;;;;;26.67;100.00;93009.13;5078578;28;20103;-79
2023/08/14 10:58:31;;;;;;;5.28;3.33;;;;;;;26.83;100.00;93014.22;5080263;28;20029;-79
2023/08/14 11:00:58;;;;;;;6.60;3.38;;;;;;;26.70;100.00;93005.69;5072773;28;20024;-82
2023/08/14 11:03:24;;;;;;;5.28;3.40;;;;;;;26.74;100.00;93014.53;5075501;28;20036;-84
2023/08/14 11:05:50;;;;;;;4.65;2.90;;;;;;;26.82;100.00;93001.91;5075712;28;20070;-81
2023/08/14 11:08:21;;;;;;;5.32;3.20;;;;;;;26.62;100.00;93014.88;5058457;28;20120;-84
2023/08/14 11:10:49;;;;;;;4.17;2.90;;;;;;;26.89;100.00;93007.34;5075680;28;20028;-83
2023/08/14 11:13:15;;;;;;;5.05;3.28;;;;;;;26.94;100.00;92991.63;5073207;28;20028;-83
2023/08/14 11:15:42;;;;;;;5.20;2.78;;;;;;;26.99;100.00;92993.94;5079220;28;20445;-84